sensor_id;sensor_type;location;lat;lon;timestamp;P1;durP1;ratioP1;P2;durP2;ratioP2
142;SDS011;63667;49.046;8.468;2023-07-02T00:00:04;13.93;;;8.40;;
142;SDS011;63667;49.046;8.468;2023-07-02T00:02:31;16.63;;;9.13;;
142;SDS011;63667;49.046;8.468;2023-07-02T00:04:57;12.50;;;8.60;;
142;SDS011;63667;49.046;8.468;2023-07-02T00:07:24;17.67;;;8.73;;
142;SDS011;63667;49.046;8.468;2023-07-02T00:09:51;13.93;;;8.63;;
142;SDS011;63667;49.046;8.468;2023-07-02T00:12:18;11.93;;;8.00;;
142;SDS011;63667;49.046;8.468;2023-07-02T00:14:44;16.03;;;8.83;;
142;SDS011;63667;49.046;8.468;2023-07-02T00:17:10;12.23;;;8.03;;
142;SDS011;63667;49.046;8.468;2023-07-02T00:19:38;17.40;;;8.20;;
142;SDS011;63667;49.046;8.468;2023-07-02T00:22:07;11.33;;;8.50;;
142;SDS011;63667;49.046;8.468;2023-07-02T00:24:34;13.43;;;8.53;;
142;SDS011;63667;49.046;8.468;2023-07-02T00:27:01;13.63;;;8.93;;
142;SDS011;63667;49.046;8.468;2023-07-02T00:29:27;14.00;;;9.10;;
142;SDS011;63667;49.046;8.468;2023-07-02T00:31:53;14.03;;;8.47;;
142;SDS011;63667;49.046;8.468;2023-07-02T00:34:20;12.50;;;9.10;;
142;SDS011;63667;49.046;8.468;2023-07-02T00:36:46;14.90;;;8.50;;
142;SDS011;63667;49.046;8.468;2023-07-02T00:39:12;11.80;;;8.57;;
142;SDS011;63667;49.046;8.468;2023-07-02T00:41:38;24.13;;;8.40;;
142;SDS011;63667;49.046;8.468;2023-07-02T00:44:05;12.70;;;8.77;;
142;SDS011;63667;49.046;8.468;2023-07-02T00:46:31;14.00;;;8.40;;
142;SDS011;63667;49.046;8.468;2023-07-02T00:48:57;16.60;;;8.57;;
142;SDS011;63667;49.046;8.468;2023-07-02T00:51:26;12.07;;;8.63;;
142;SDS011;63667;49.046;8.468;2023-07-02T00:53:54;12.27;;;8.97;;
142;SDS011;63667;49.046;8.468;2023-07-02T00:56:22;13.07;;;8.53;;
142;SDS011;63667;49.046;8.468;2023-07-02T00:58:50;21.53;;;8.90;;
142;SDS011;63667;49.046;8.468;2023-07-02T01:01:17;19.13;;;9.03;;
142;SDS011;63667;49.046;8.468;2023-07-02T01:03:56;14.47;;;8.77;;
142;SDS011;63667;49.046;8.468;2023-07-02T01:06:23;12.33;;;8.40;;
142;SDS011;63667;49.046;8.468;2023-07-02T01:08:57;17.30;;;9.03;;
142;SDS011;63667;49.046;8.468;2023-07-02T01:11:29;12.20;;;8.20;;
142;SDS011;63667;49.046;8.468;2023-07-02T01:14:17;16.13;;;8.27;;
142;SDS011;63667;49.046;8.468;2023-07-02T01:16:50;16.03;;;8.20;;
142;SDS011;63667;49.046;8.468;2023-07-02T01:19:19;15.30;;;8.27;;
142;SDS011;63667;49.046;8.468;2023-07-02T01:21:51;14.47;;;8.10;;
142;SDS011;63667;49.046;8.468;2023-07-02T01:24:17;14.70;;;8.00;;
142;SDS011;63667;49.046;8.468;2023-07-02T01:26:43;16.23;;;8.00;;
142;SDS011;63667;49.046;8.468;2023-07-02T01:31:41;11.03;;;8.23;;
142;SDS011;63667;49.046;8.468;2023-07-02T01:34:07;15.07;;;7.10;;
142;SDS011;63667;49.046;8.468;2023-07-02T01:36:34;12.70;;;7.50;;
142;SDS011;63667;49.046;8.468;2023-07-02T01:39:01;10.33;;;7.63;;
142;SDS011;63667;49.046;8.468;2023-07-02T01:41:27;10.33;;;7.57;;
142;SDS011;63667;49.046;8.468;2023-07-02T01:43:56;15.70;;;7.80;;
142;SDS011;63667;49.046;8.468;2023-07-02T01:46:22;10.33;;;7.37;;
142;SDS011;63667;49.046;8.468;2023-07-02T01:48:48;10.27;;;7.70;;
142;SDS011;63667;49.046;8.468;2023-07-02T01:51:14;10.00;;;7.33;;
142;SDS011;63667;49.046;8.468;2023-07-02T01:53:41;17.00;;;6.93;;
142;SDS011;63667;49.046;8.468;2023-07-02T01:56:07;13.00;;;7.43;;
142;SDS011;63667;49.046;8.468;2023-07-02T01:58:33;12.23;;;7.37;;
142;SDS011;63667;49.046;8.468;2023-07-02T02:00:59;11.90;;;7.03;;
142;SDS011;63667;49.046;8.468;2023-07-02T02:03:25;11.00;;;6.60;;
142;SDS011;63667;49.046;8.468;2023-07-02T02:05:51;17.13;;;6.30;;
142;SDS011;63667;49.046;8.468;2023-07-02T02:08:17;16.17;;;6.63;;
142;SDS011;63667;49.046;8.468;2023-07-02T02:10:43;9.63;;;6.40;;
142;SDS011;63667;49.046;8.468;2023-07-02T02:13:09;11.70;;;5.60;;
142;SDS011;63667;49.046;8.468;2023-07-02T02:15:35;10.30;;;6.13;;
142;SDS011;63667;49.046;8.468;2023-07-02T02:18:02;15.20;;;6.23;;
142;SDS011;63667;49.046;8.468;2023-07-02T02:20:28;14.23;;;6.60;;
142;SDS011;63667;49.046;8.468;2023-07-02T02:22:54;11.17;;;6.70;;
142;SDS011;63667;49.046;8.468;2023-07-02T02:25:20;12.97;;;7.00;;
142;SDS011;63667;49.046;8.468;2023-07-02T02:27:46;10.50;;;6.33;;
142;SDS011;63667;49.046;8.468;2023-07-02T02:30:13;22.33;;;7.37;;
142;SDS011;63667;49.046;8.468;2023-07-02T02:32:39;11.20;;;6.80;;
142;SDS011;63667;49.046;8.468;2023-07-02T02:35:05;11.40;;;6.20;;
142;SDS011;63667;49.046;8.468;2023-07-02T02:37:33;14.53;;;6.93;;
142;SDS011;63667;49.046;8.468;2023-07-02T02:40:00;12.77;;;6.03;;
142;SDS011;63667;49.046;8.468;2023-07-02T02:42:26;13.60;;;6.60;;
142;SDS011;63667;49.046;8.468;2023-07-02T02:44:52;11.07;;;6.27;;
142;SDS011;63667;49.046;8.468;2023-07-02T02:47:18;12.63;;;5.63;;
142;SDS011;63667;49.046;8.468;2023-07-02T02:49:44;12.10;;;5.93;;
142;SDS011;63667;49.046;8.468;2023-07-02T02:52:10;14.10;;;5.93;;
142;SDS011;63667;49.046;8.468;2023-07-02T02:54:38;13.03;;;6.23;;
142;SDS011;63667;49.046;8.468;2023-07-02T02:57:04;9.30;;;5.93;;
142;SDS011;63667;49.046;8.468;2023-07-02T02:59:30;14.53;;;5.83;;
142;SDS011;63667;49.046;8.468;2023-07-02T03:01:56;11.87;;;6.57;;
142;SDS011;63667;49.046;8.468;2023-07-02T03:04:22;7.60;;;5.67;;
142;SDS011;63667;49.046;8.468;2023-07-02T03:06:52;11.50;;;5.97;;
142;SDS011;63667;49.046;8.468;2023-07-02T03:09:19;21.20;;;5.53;;
142;SDS011;63667;49.046;8.468;2023-07-02T03:11:45;9.20;;;5.60;;
142;SDS011;63667;49.046;8.468;2023-07-02T03:14:12;8.33;;;5.40;;
142;SDS011;63667;49.046;8.468;2023-07-02T03:16:38;11.20;;;5.90;;
142;SDS011;63667;49.046;8.468;2023-07-02T03:19:04;8.90;;;5.53;;
142;SDS011;63667;49.046;8.468;2023-07-02T03:21:30;8.53;;;5.57;;
142;SDS011;63667;49.046;8.468;2023-07-02T03:23:57;8.17;;;5.17;;
142;SDS011;63667;49.046;8.468;2023-07-02T03:26:24;11.80;;;5.33;;
142;SDS011;63667;49.046;8.468;2023-07-02T03:28:50;6.83;;;4.83;;
142;SDS011;63667;49.046;8.468;2023-07-02T03:31:16;11.90;;;6.40;;
142;SDS011;63667;49.046;8.468;2023-07-02T03:33:42;14.80;;;5.70;;
142;SDS011;63667;49.046;8.468;2023-07-02T03:36:08;12.57;;;5.47;;
142;SDS011;63667;49.046;8.468;2023-07-02T03:38:34;6.63;;;5.40;;
142;SDS011;63667;49.046;8.468;2023-07-02T03:41:00;11.10;;;5.97;;
142;SDS011;63667;49.046;8.468;2023-07-02T03:43:26;13.33;;;6.57;;
142;SDS011;63667;49.046;8.468;2023-07-02T03:45:53;10.90;;;6.03;;
142;SDS011;63667;49.046;8.468;2023-07-02T03:48:19;13.07;;;5.80;;
142;SDS011;63667;49.046;8.468;2023-07-02T03:50:45;12.80;;;6.17;;
142;SDS011;63667;49.046;8.468;2023-07-02T03:53:11;8.73;;;6.00;;
142;SDS011;63667;49.046;8.468;2023-07-02T03:55:37;13.37;;;6.50;;
142;SDS011;63667;49.046;8.468;2023-07-02T03:58:04;10.97;;;6.43;;
142;SDS011;63667;49.046;8.468;2023-07-02T04:00:30;11.07;;;6.03;;
142;SDS011;63667;49.046;8.468;2023-07-02T04:02:56;13.33;;;6.37;;
142;SDS011;63667;49.046;8.468;2023-07-02T04:05:23;23.93;;;6.63;;
142;SDS011;63667;49.046;8.468;2023-07-02T04:07:49;14.37;;;6.33;;
142;SDS011;63667;49.046;8.468;2023-07-02T04:10:15;8.83;;;5.70;;
142;SDS011;63667;49.046;8.468;2023-07-02T04:12:41;8.80;;;5.77;;
142;SDS011;63667;49.046;8.468;2023-07-02T04:15:08;12.20;;;6.70;;
142;SDS011;63667;49.046;8.468;2023-07-02T04:17:34;10.07;;;5.93;;
142;SDS011;63667;49.046;8.468;2023-07-02T04:20:02;21.83;;;7.00;;
142;SDS011;63667;49.046;8.468;2023-07-02T04:22:29;15.60;;;5.73;;
142;SDS011;63667;49.046;8.468;2023-07-02T04:24:55;12.03;;;6.90;;
142;SDS011;63667;49.046;8.468;2023-07-02T04:27:22;15.00;;;7.13;;
142;SDS011;63667;49.046;8.468;2023-07-02T04:29:48;10.10;;;6.03;;
142;SDS011;63667;49.046;8.468;2023-07-02T04:32:14;16.03;;;7.53;;
142;SDS011;63667;49.046;8.468;2023-07-02T04:34:40;16.40;;;6.83;;
142;SDS011;63667;49.046;8.468;2023-07-02T04:37:08;15.53;;;6.57;;
142;SDS011;63667;49.046;8.468;2023-07-02T04:39:35;14.97;;;7.40;;
142;SDS011;63667;49.046;8.468;2023-07-02T04:42:01;12.00;;;6.67;;
142;SDS011;63667;49.046;8.468;2023-07-02T04:44:27;10.23;;;6.80;;
142;SDS011;63667;49.046;8.468;2023-07-02T04:46:57;11.83;;;6.57;;
142;SDS011;63667;49.046;8.468;2023-07-02T04:49:23;14.33;;;6.67;;
142;SDS011;63667;49.046;8.468;2023-07-02T04:51:50;14.70;;;7.60;;
142;SDS011;63667;49.046;8.468;2023-07-02T04:54:22;15.90;;;6.80;;
142;SDS011;63667;49.046;8.468;2023-07-02T04:56:48;19.80;;;6.93;;
142;SDS011;63667;49.046;8.468;2023-07-02T04:59:14;20.43;;;7.90;;
142;SDS011;63667;49.046;8.468;2023-07-02T05:01:41;15.27;;;7.83;;
142;SDS011;63667;49.046;8.468;2023-07-02T05:04:09;15.20;;;8.17;;
142;SDS011;63667;49.046;8.468;2023-07-02T05:06:38;18.27;;;8.30;;
142;SDS011;63667;49.046;8.468;2023-07-02T05:09:05;10.93;;;7.40;;
142;SDS011;63667;49.046;8.468;2023-07-02T05:11:31;15.40;;;7.80;;
142;SDS011;63667;49.046;8.468;2023-07-02T05:13:57;16.77;;;7.40;;
142;SDS011;63667;49.046;8.468;2023-07-02T05:16:23;16.33;;;7.63;;
142;SDS011;63667;49.046;8.468;2023-07-02T05:18:49;14.73;;;7.13;;
142;SDS011;63667;49.046;8.468;2023-07-02T05:21:18;21.33;;;7.60;;
142;SDS011;63667;49.046;8.468;2023-07-02T05:23:44;14.43;;;7.27;;
142;SDS011;63667;49.046;8.468;2023-07-02T05:26:10;18.10;;;7.90;;
142;SDS011;63667;49.046;8.468;2023-07-02T05:28:37;16.13;;;7.30;;
142;SDS011;63667;49.046;8.468;2023-07-02T05:31:03;14.07;;;6.77;;
142;SDS011;63667;49.046;8.468;2023-07-02T05:33:29;12.33;;;7.13;;
142;SDS011;63667;49.046;8.468;2023-07-02T05:35:57;13.00;;;7.50;;
142;SDS011;63667;49.046;8.468;2023-07-02T05:38:24;16.33;;;7.67;;
142;SDS011;63667;49.046;8.468;2023-07-02T05:40:50;17.93;;;8.53;;
142;SDS011;63667;49.046;8.468;2023-07-02T05:43:16;16.07;;;7.63;;
142;SDS011;63667;49.046;8.468;2023-07-02T05:45:42;17.23;;;8.10;;
142;SDS011;63667;49.046;8.468;2023-07-02T05:48:08;15.23;;;7.87;;
142;SDS011;63667;49.046;8.468;2023-07-02T05:50:34;14.70;;;7.70;;
142;SDS011;63667;49.046;8.468;2023-07-02T05:53:01;23.67;;;8.57;;
142;SDS011;63667;49.046;8.468;2023-07-02T05:55:27;17.10;;;8.27;;
142;SDS011;63667;49.046;8.468;2023-07-02T05:57:53;13.23;;;8.13;;
142;SDS011;63667;49.046;8.468;2023-07-02T06:00:20;15.60;;;7.80;;
142;SDS011;63667;49.046;8.468;2023-07-02T06:02:46;17.67;;;7.70;;
142;SDS011;63667;49.046;8.468;2023-07-02T06:05:13;17.23;;;7.97;;
142;SDS011;63667;49.046;8.468;2023-07-02T06:07:39;25.83;;;7.40;;
142;SDS011;63667;49.046;8.468;2023-07-02T06:10:05;14.93;;;6.87;;
142;SDS011;63667;49.046;8.468;2023-07-02T06:12:32;20.23;;;8.27;;
142;SDS011;63667;49.046;8.468;2023-07-02T06:14:58;11.10;;;6.50;;
142;SDS011;63667;49.046;8.468;2023-07-02T06:17:24;11.73;;;6.60;;
142;SDS011;63667;49.046;8.468;2023-07-02T06:19:50;17.93;;;7.27;;
142;SDS011;63667;49.046;8.468;2023-07-02T06:22:16;22.23;;;6.50;;
142;SDS011;63667;49.046;8.468;2023-07-02T06:24:42;10.20;;;6.37;;
142;SDS011;63667;49.046;8.468;2023-07-02T06:27:08;11.30;;;6.77;;
142;SDS011;63667;49.046;8.468;2023-07-02T06:29:35;15.00;;;6.63;;
142;SDS011;63667;49.046;8.468;2023-07-02T06:32:01;11.80;;;6.13;;
142;SDS011;63667;49.046;8.468;2023-07-02T06:34:27;14.73;;;7.07;;
142;SDS011;63667;49.046;8.468;2023-07-02T06:36:53;11.97;;;6.60;;
142;SDS011;63667;49.046;8.468;2023-07-02T06:39:19;15.67;;;6.50;;
142;SDS011;63667;49.046;8.468;2023-07-02T06:41:46;16.53;;;7.70;;
142;SDS011;63667;49.046;8.468;2023-07-02T06:44:12;16.80;;;8.20;;
142;SDS011;63667;49.046;8.468;2023-07-02T06:46:38;16.60;;;8.37;;
142;SDS011;63667;49.046;8.468;2023-07-02T06:49:04;18.83;;;9.30;;
142;SDS011;63667;49.046;8.468;2023-07-02T06:51:31;25.93;;;9.37;;
142;SDS011;63667;49.046;8.468;2023-07-02T06:53:57;22.97;;;9.87;;
142;SDS011;63667;49.046;8.468;2023-07-02T06:56:23;20.23;;;9.80;;
142;SDS011;63667;49.046;8.468;2023-07-02T06:58:49;19.80;;;9.57;;
142;SDS011;63667;49.046;8.468;2023-07-02T07:01:15;20.53;;;10.43;;
142;SDS011;63667;49.046;8.468;2023-07-02T07:03:41;22.97;;;11.10;;
142;SDS011;63667;49.046;8.468;2023-07-02T07:06:07;23.70;;;11.03;;
142;SDS011;63667;49.046;8.468;2023-07-02T07:08:36;32.37;;;11.30;;
142;SDS011;63667;49.046;8.468;2023-07-02T07:11:04;23.77;;;11.90;;
142;SDS011;63667;49.046;8.468;2023-07-02T07:13:30;24.20;;;12.47;;
142;SDS011;63667;49.046;8.468;2023-07-02T07:15:56;22.20;;;11.20;;
142;SDS011;63667;49.046;8.468;2023-07-02T07:18:22;25.73;;;12.40;;
142;SDS011;63667;49.046;8.468;2023-07-02T07:20:48;24.60;;;11.53;;
142;SDS011;63667;49.046;8.468;2023-07-02T07:23:15;25.60;;;11.87;;
142;SDS011;63667;49.046;8.468;2023-07-02T07:25:42;23.33;;;11.50;;
142;SDS011;63667;49.046;8.468;2023-07-02T07:28:09;27.47;;;13.50;;
142;SDS011;63667;49.046;8.468;2023-07-02T07:30:41;26.40;;;12.57;;
142;SDS011;63667;49.046;8.468;2023-07-02T07:33:08;26.53;;;12.90;;
142;SDS011;63667;49.046;8.468;2023-07-02T07:35:35;25.37;;;12.07;;
142;SDS011;63667;49.046;8.468;2023-07-02T07:38:02;26.17;;;11.93;;
142;SDS011;63667;49.046;8.468;2023-07-02T07:40:28;27.70;;;12.40;;
142;SDS011;63667;49.046;8.468;2023-07-02T07:42:54;28.80;;;12.93;;
142;SDS011;63667;49.046;8.468;2023-07-02T07:45:20;25.17;;;12.67;;
142;SDS011;63667;49.046;8.468;2023-07-02T07:47:46;23.63;;;12.17;;
142;SDS011;63667;49.046;8.468;2023-07-02T07:50:12;32.43;;;11.70;;
142;SDS011;63667;49.046;8.468;2023-07-02T07:52:39;29.70;;;13.00;;
142;SDS011;63667;49.046;8.468;2023-07-02T07:55:06;26.87;;;14.27;;
142;SDS011;63667;49.046;8.468;2023-07-02T07:57:33;28.03;;;14.40;;
142;SDS011;63667;49.046;8.468;2023-07-02T08:00:00;32.87;;;13.50;;
142;SDS011;63667;49.046;8.468;2023-07-02T08:02:29;28.80;;;14.63;;
142;SDS011;63667;49.046;8.468;2023-07-02T08:04:55;28.43;;;14.30;;
142;SDS011;63667;49.046;8.468;2023-07-02T08:07:21;31.03;;;14.80;;
142;SDS011;63667;49.046;8.468;2023-07-02T08:09:47;32.83;;;15.37;;
142;SDS011;63667;49.046;8.468;2023-07-02T08:12:14;28.73;;;14.90;;
142;SDS011;63667;49.046;8.468;2023-07-02T08:14:40;36.20;;;17.07;;
142;SDS011;63667;49.046;8.468;2023-07-02T08:17:07;34.83;;;16.10;;
142;SDS011;63667;49.046;8.468;2023-07-02T08:19:33;36.63;;;16.67;;
142;SDS011;63667;49.046;8.468;2023-07-02T08:21:59;32.30;;;15.97;;
142;SDS011;63667;49.046;8.468;2023-07-02T08:24:25;30.40;;;15.23;;
142;SDS011;63667;49.046;8.468;2023-07-02T08:26:51;40.83;;;17.30;;
142;SDS011;63667;49.046;8.468;2023-07-02T08:29:17;36.37;;;15.87;;
142;SDS011;63667;49.046;8.468;2023-07-02T08:31:43;38.73;;;16.20;;
142;SDS011;63667;49.046;8.468;2023-07-02T08:34:09;45.13;;;16.37;;
142;SDS011;63667;49.046;8.468;2023-07-02T08:36:35;35.10;;;16.60;;
142;SDS011;63667;49.046;8.468;2023-07-02T08:39:01;34.33;;;16.10;;
142;SDS011;63667;49.046;8.468;2023-07-02T08:41:29;40.73;;;17.90;;
142;SDS011;63667;49.046;8.468;2023-07-02T08:43:55;41.63;;;16.90;;
142;SDS011;63667;49.046;8.468;2023-07-02T08:46:22;38.90;;;16.87;;
142;SDS011;63667;49.046;8.468;2023-07-02T08:48:48;40.27;;;18.53;;
142;SDS011;63667;49.046;8.468;2023-07-02T08:51:14;40.07;;;18.17;;
142;SDS011;63667;49.046;8.468;2023-07-02T08:53:40;38.60;;;16.90;;
142;SDS011;63667;49.046;8.468;2023-07-02T08:56:06;40.00;;;17.83;;
142;SDS011;63667;49.046;8.468;2023-07-02T08:58:32;42.43;;;17.20;;
142;SDS011;63667;49.046;8.468;2023-07-02T09:03:34;39.47;;;18.23;;
142;SDS011;63667;49.046;8.468;2023-07-02T09:06:09;40.80;;;18.73;;
142;SDS011;63667;49.046;8.468;2023-07-02T09:08:36;42.97;;;17.73;;
142;SDS011;63667;49.046;8.468;2023-07-02T09:11:09;40.00;;;17.90;;
142;SDS011;63667;49.046;8.468;2023-07-02T09:13:50;43.33;;;19.33;;
142;SDS011;63667;49.046;8.468;2023-07-02T09:16:28;43.57;;;18.63;;
142;SDS011;63667;49.046;8.468;2023-07-02T09:24:14;41.23;;;18.27;;
142;SDS011;63667;49.046;8.468;2023-07-02T09:26:42;39.47;;;18.80;;
142;SDS011;63667;49.046;8.468;2023-07-02T09:29:21;42.40;;;18.27;;
142;SDS011;63667;49.046;8.468;2023-07-02T09:31:59;43.33;;;18.33;;
142;SDS011;63667;49.046;8.468;2023-07-02T09:34:32;45.97;;;19.27;;
142;SDS011;63667;49.046;8.468;2023-07-02T09:37:00;41.17;;;18.67;;
142;SDS011;63667;49.046;8.468;2023-07-02T09:39:28;42.93;;;19.00;;
142;SDS011;63667;49.046;8.468;2023-07-02T09:41:56;43.77;;;18.63;;
142;SDS011;63667;49.046;8.468;2023-07-02T09:44:30;39.73;;;19.33;;
142;SDS011;63667;49.046;8.468;2023-07-02T09:49:27;41.60;;;19.30;;
142;SDS011;63667;49.046;8.468;2023-07-02T09:51:58;45.80;;;19.50;;
142;SDS011;63667;49.046;8.468;2023-07-02T09:54:27;46.00;;;20.47;;
142;SDS011;63667;49.046;8.468;2023-07-02T09:56:54;49.23;;;20.83;;
142;SDS011;63667;49.046;8.468;2023-07-02T09:59:20;40.60;;;19.13;;
142;SDS011;63667;49.046;8.468;2023-07-02T10:01:47;40.93;;;19.80;;
142;SDS011;63667;49.046;8.468;2023-07-02T10:04:17;42.53;;;17.63;;
142;SDS011;63667;49.046;8.468;2023-07-02T10:06:45;39.53;;;18.90;;
142;SDS011;63667;49.046;8.468;2023-07-02T10:09:15;35.93;;;16.97;;
142;SDS011;63667;49.046;8.468;2023-07-02T10:11:42;42.33;;;19.70;;
142;SDS011;63667;49.046;8.468;2023-07-02T10:14:08;36.30;;;18.30;;
142;SDS011;63667;49.046;8.468;2023-07-02T10:16:47;38.10;;;18.07;;
142;SDS011;63667;49.046;8.468;2023-07-02T10:19:15;34.37;;;17.17;;
142;SDS011;63667;49.046;8.468;2023-07-02T10:21:41;34.60;;;17.40;;
142;SDS011;63667;49.046;8.468;2023-07-02T10:24:11;33.50;;;17.10;;
142;SDS011;63667;49.046;8.468;2023-07-02T10:26:38;34.13;;;19.00;;
142;SDS011;63667;49.046;8.468;2023-07-02T10:29:18;45.70;;;19.60;;
142;SDS011;63667;49.046;8.468;2023-07-02T10:31:49;39.30;;;18.90;;
142;SDS011;63667;49.046;8.468;2023-07-02T10:34:32;41.60;;;18.73;;
142;SDS011;63667;49.046;8.468;2023-07-02T10:37:00;40.00;;;19.47;;
142;SDS011;63667;49.046;8.468;2023-07-02T10:39:27;43.73;;;19.40;;
142;SDS011;63667;49.046;8.468;2023-07-02T10:42:08;36.17;;;18.80;;
142;SDS011;63667;49.046;8.468;2023-07-02T10:44:46;37.33;;;18.90;;
142;SDS011;63667;49.046;8.468;2023-07-02T10:47:16;43.57;;;17.97;;
142;SDS011;63667;49.046;8.468;2023-07-02T10:49:42;36.83;;;18.00;;
142;SDS011;63667;49.046;8.468;2023-07-02T10:52:09;39.10;;;19.70;;
142;SDS011;63667;49.046;8.468;2023-07-02T10:54:41;39.70;;;18.90;;
142;SDS011;63667;49.046;8.468;2023-07-02T10:57:09;30.90;;;16.40;;
142;SDS011;63667;49.046;8.468;2023-07-02T10:59:38;37.97;;;19.70;;
142;SDS011;63667;49.046;8.468;2023-07-02T11:02:04;36.03;;;19.03;;
142;SDS011;63667;49.046;8.468;2023-07-02T11:04:32;33.83;;;17.47;;
142;SDS011;63667;49.046;8.468;2023-07-02T11:06:59;31.70;;;16.13;;
142;SDS011;63667;49.046;8.468;2023-07-02T11:09:26;42.40;;;17.97;;
142;SDS011;63667;49.046;8.468;2023-07-02T11:11:53;35.63;;;19.80;;
142;SDS011;63667;49.046;8.468;2023-07-02T11:14:30;36.00;;;19.17;;
142;SDS011;63667;49.046;8.468;2023-07-02T11:16:58;39.00;;;18.30;;
142;SDS011;63667;49.046;8.468;2023-07-02T11:19:27;43.43;;;20.30;;
142;SDS011;63667;49.046;8.468;2023-07-02T11:21:54;35.33;;;18.10;;
142;SDS011;63667;49.046;8.468;2023-07-02T11:24:35;40.53;;;17.40;;
142;SDS011;63667;49.046;8.468;2023-07-02T11:27:02;37.33;;;18.50;;
142;SDS011;63667;49.046;8.468;2023-07-02T11:29:31;38.13;;;18.70;;
142;SDS011;63667;49.046;8.468;2023-07-02T11:32:04;35.43;;;18.00;;
142;SDS011;63667;49.046;8.468;2023-07-02T11:34:31;37.40;;;18.80;;
142;SDS011;63667;49.046;8.468;2023-07-02T11:36:57;43.13;;;19.43;;
142;SDS011;63667;49.046;8.468;2023-07-02T11:39:24;35.03;;;17.90;;
142;SDS011;63667;49.046;8.468;2023-07-02T11:41:50;31.50;;;16.90;;
142;SDS011;63667;49.046;8.468;2023-07-02T11:44:16;32.60;;;18.47;;
142;SDS011;63667;49.046;8.468;2023-07-02T11:46:43;32.67;;;18.20;;
142;SDS011;63667;49.046;8.468;2023-07-02T11:49:10;35.63;;;18.87;;
142;SDS011;63667;49.046;8.468;2023-07-02T11:51:36;29.60;;;17.53;;
142;SDS011;63667;49.046;8.468;2023-07-02T11:54:06;35.17;;;18.77;;
142;SDS011;63667;49.046;8.468;2023-07-02T11:56:32;28.73;;;17.87;;
142;SDS011;63667;49.046;8.468;2023-07-02T11:58:59;30.07;;;17.40;;
142;SDS011;63667;49.046;8.468;2023-07-02T12:01:25;38.83;;;19.20;;
142;SDS011;63667;49.046;8.468;2023-07-02T12:03:52;33.20;;;17.70;;
142;SDS011;63667;49.046;8.468;2023-07-02T12:06:18;33.00;;;18.83;;
142;SDS011;63667;49.046;8.468;2023-07-02T12:08:44;38.37;;;19.07;;
142;SDS011;63667;49.046;8.468;2023-07-02T12:11:10;39.87;;;19.67;;
142;SDS011;63667;49.046;8.468;2023-07-02T12:13:36;34.50;;;18.60;;
142;SDS011;63667;49.046;8.468;2023-07-02T12:16:02;48.60;;;18.37;;
142;SDS011;63667;49.046;8.468;2023-07-02T12:18:29;38.50;;;19.90;;
142;SDS011;63667;49.046;8.468;2023-07-02T12:20:55;36.07;;;19.43;;
142;SDS011;63667;49.046;8.468;2023-07-02T12:23:21;29.50;;;18.00;;
142;SDS011;63667;49.046;8.468;2023-07-02T12:25:47;29.87;;;18.30;;
142;SDS011;63667;49.046;8.468;2023-07-02T12:28:14;37.30;;;18.77;;
142;SDS011;63667;49.046;8.468;2023-07-02T12:30:40;32.27;;;18.10;;
142;SDS011;63667;49.046;8.468;2023-07-02T12:33:07;30.83;;;18.30;;
142;SDS011;63667;49.046;8.468;2023-07-02T12:35:33;36.43;;;17.50;;
142;SDS011;63667;49.046;8.468;2023-07-02T12:37:59;31.70;;;17.37;;
142;SDS011;63667;49.046;8.468;2023-07-02T12:40:25;32.17;;;17.43;;
142;SDS011;63667;49.046;8.468;2023-07-02T12:42:52;41.23;;;18.73;;
142;SDS011;63667;49.046;8.468;2023-07-02T12:45:18;36.50;;;19.27;;
142;SDS011;63667;49.046;8.468;2023-07-02T12:47:44;34.13;;;18.27;;
142;SDS011;63667;49.046;8.468;2023-07-02T12:50:10;31.77;;;17.43;;
142;SDS011;63667;49.046;8.468;2023-07-02T12:52:37;38.57;;;19.00;;
142;SDS011;63667;49.046;8.468;2023-07-02T12:55:03;33.50;;;18.27;;
142;SDS011;63667;49.046;8.468;2023-07-02T12:57:30;35.97;;;18.17;;
142;SDS011;63667;49.046;8.468;2023-07-02T12:59:56;37.27;;;19.03;;
142;SDS011;63667;49.046;8.468;2023-07-02T13:02:23;30.77;;;17.37;;
142;SDS011;63667;49.046;8.468;2023-07-02T13:04:49;33.03;;;17.70;;
142;SDS011;63667;49.046;8.468;2023-07-02T13:07:16;32.23;;;17.13;;
142;SDS011;63667;49.046;8.468;2023-07-02T13:09:43;31.23;;;17.93;;
142;SDS011;63667;49.046;8.468;2023-07-02T13:12:10;30.27;;;16.90;;
142;SDS011;63667;49.046;8.468;2023-07-02T13:14:36;29.00;;;17.40;;
142;SDS011;63667;49.046;8.468;2023-07-02T13:17:03;31.43;;;16.50;;
142;SDS011;63667;49.046;8.468;2023-07-02T13:19:31;35.47;;;17.00;;
142;SDS011;63667;49.046;8.468;2023-07-02T13:21:57;31.87;;;17.33;;
142;SDS011;63667;49.046;8.468;2023-07-02T13:24:24;32.63;;;16.93;;
142;SDS011;63667;49.046;8.468;2023-07-02T13:26:50;31.17;;;17.80;;
142;SDS011;63667;49.046;8.468;2023-07-02T13:29:16;32.13;;;16.93;;
142;SDS011;63667;49.046;8.468;2023-07-02T13:31:42;26.57;;;15.80;;
142;SDS011;63667;49.046;8.468;2023-07-02T13:34:08;32.47;;;16.30;;
142;SDS011;63667;49.046;8.468;2023-07-02T13:36:34;27.07;;;14.60;;
142;SDS011;63667;49.046;8.468;2023-07-02T13:39:01;26.13;;;15.30;;
142;SDS011;63667;49.046;8.468;2023-07-02T13:41:28;26.73;;;14.50;;
142;SDS011;63667;49.046;8.468;2023-07-02T13:43:56;27.80;;;15.33;;
142;SDS011;63667;49.046;8.468;2023-07-02T13:46:22;30.93;;;16.90;;
142;SDS011;63667;49.046;8.468;2023-07-02T13:48:48;27.63;;;15.47;;
142;SDS011;63667;49.046;8.468;2023-07-02T13:51:14;28.33;;;15.63;;
142;SDS011;63667;49.046;8.468;2023-07-02T13:53:41;29.27;;;16.37;;
142;SDS011;63667;49.046;8.468;2023-07-02T13:56:07;32.50;;;16.70;;
142;SDS011;63667;49.046;8.468;2023-07-02T13:58:46;26.10;;;15.70;;
142;SDS011;63667;49.046;8.468;2023-07-02T14:01:33;29.87;;;16.13;;
142;SDS011;63667;49.046;8.468;2023-07-02T14:03:59;29.50;;;14.90;;
142;SDS011;63667;49.046;8.468;2023-07-02T14:06:26;27.90;;;16.23;;
142;SDS011;63667;49.046;8.468;2023-07-02T14:08:53;29.17;;;15.77;;
142;SDS011;63667;49.046;8.468;2023-07-02T14:11:19;26.20;;;15.30;;
142;SDS011;63667;49.046;8.468;2023-07-02T14:13:46;27.63;;;15.20;;
142;SDS011;63667;49.046;8.468;2023-07-02T14:16:12;25.80;;;15.63;;
142;SDS011;63667;49.046;8.468;2023-07-02T14:18:39;29.13;;;15.50;;
142;SDS011;63667;49.046;8.468;2023-07-02T14:21:05;29.27;;;15.73;;
142;SDS011;63667;49.046;8.468;2023-07-02T14:23:32;26.77;;;16.30;;
142;SDS011;63667;49.046;8.468;2023-07-02T14:25:58;28.40;;;16.00;;
142;SDS011;63667;49.046;8.468;2023-07-02T14:28:25;25.60;;;14.90;;
142;SDS011;63667;49.046;8.468;2023-07-02T14:31:04;27.30;;;15.43;;
142;SDS011;63667;49.046;8.468;2023-07-02T14:33:31;30.33;;;16.40;;
142;SDS011;63667;49.046;8.468;2023-07-02T14:35:59;36.80;;;17.57;;
142;SDS011;63667;49.046;8.468;2023-07-02T14:38:25;34.67;;;16.30;;
142;SDS011;63667;49.046;8.468;2023-07-02T14:40:53;32.73;;;16.97;;
142;SDS011;63667;49.046;8.468;2023-07-02T14:43:20;24.33;;;15.40;;
142;SDS011;63667;49.046;8.468;2023-07-02T14:45:47;26.27;;;15.10;;
142;SDS011;63667;49.046;8.468;2023-07-02T14:48:14;29.70;;;15.93;;
142;SDS011;63667;49.046;8.468;2023-07-02T14:50:51;21.40;;;14.20;;
142;SDS011;63667;49.046;8.468;2023-07-02T14:53:18;27.53;;;15.30;;
142;SDS011;63667;49.046;8.468;2023-07-02T14:55:44;31.37;;;14.60;;
142;SDS011;63667;49.046;8.468;2023-07-02T14:58:11;29.50;;;15.50;;
142;SDS011;63667;49.046;8.468;2023-07-02T15:00:47;26.67;;;14.40;;
142;SDS011;63667;49.046;8.468;2023-07-02T15:03:14;27.17;;;16.40;;
142;SDS011;63667;49.046;8.468;2023-07-02T15:05:40;24.90;;;15.03;;
142;SDS011;63667;49.046;8.468;2023-07-02T15:08:07;21.97;;;13.60;;